Time;durP1;ratioP1;P1;durP2;ratioP2;P2;SDS_P1;SDS_P2;PMS_P1;PMS_P2;Temp;Humidity;BMP_temperature;BMP_pressure;BME280_temperature;BME280_humidity;BME280_pressure;Samples;Min_cycle;Max_cycle;Signal;HPM_P1;HPM_P2
2021/12/18 00:01:20;;;;;;;;;;;;;;;11.51;75.01;102135.50;5050032;28;19927;-59
2021/12/18 00:03:47;;;;;;;;;;;;;;;11.49;74.79;102132.91;5049498;28;19925;-61
2021/12/18 00:06:13;;;;;;;;;;;;;;;11.49;74.87;102132.91;5054015;28;19990;-59
2021/12/18 00:08:40;;;;;;;;;;;;;;;11.49;74.87;102121.47;5053768;28;19928;-59
2021/12/18 00:11:07;;;;;;;;;;;;;;;11.49;75.10;102118.84;5052521;28;19924;-60
2021/12/18 00:13:34;;;;;;;;;;;;;;;11.47;74.95;102114.47;5052501;28;19920;-59
2021/12/18 00:16:01;;;;;;;;;;;;;;;11.46;74.83;102104.84;5052453;28;19921;-59
2021/12/18 00:18:30;;;;;;;;;;;;;;;11.45;74.81;102104.88;5053657;28;20343;-59
2021/12/18 00:20:58;;;;;;;;;;;;;;;11.43;74.75;102109.28;5053594;28;19978;-59
2021/12/18 00:23:25;;;;;;;;;;;;;;;11.41;74.72;102106.72;5052419;28;19921;-59
2021/12/18 00:25:52;;;;;;;;;;;;;;;11.40;74.88;102104.09;5052349;28;19932;-59
2021/12/18 00:28:18;;;;;;;;;;;;;;;11.39;74.71;102108.50;5053596;28;19925;-59
2021/12/18 00:30:45;;;;;;;;;;;;;;;11.38;74.69;102113.81;5053199;28;19947;-59
2021/12/18 00:33:11;;;;;;;;;;;;;;;11.37;74.81;102112.09;5053359;28;19927;-61
2021/12/18 00:35:38;;;;;;;;;;;;;;;11.35;74.74;102117.38;5053513;28;19925;-59
2021/12/18 00:38:05;;;;;;;;;;;;;;;11.34;74.84;102118.28;5053464;28;19920;-59
2021/12/18 00:40:44;;;;;;;;;;;;;;;11.34;74.89;102118.28;5053260;28;19928;-60
2021/12/18 00:44:13;;;;;;;;;;;;;;;11.33;74.84;102125.31;5053171;28;19921;-59
2021/12/18 00:46:07;;;;;;;;;;;;;;;11.33;74.90;102120.06;5052425;28;19982;-59
2021/12/18 00:48:34;;;;;;;;;;;;;;;11.32;74.87;102126.22;5053146;28;20382;-61
2021/12/18 00:51:00;;;;;;;;;;;;;;;11.32;74.97;102126.22;5052946;28;19922;-59
2021/12/18 00:53:30;;;;;;;;;;;;;;;11.32;75.01;102131.50;5052932;28;19932;-61
2021/12/18 00:55:57;;;;;;;;;;;;;;;11.33;75.06;102132.38;5052960;28;19920;-59
2021/12/18 00:58:24;;;;;;;;;;;;;;;11.33;75.03;102129.75;5053217;28;19927;-60
2021/12/18 01:00:52;;;;;;;;;;;;;;;11.32;74.86;102135.91;5052602;28;19949;-58
2021/12/18 01:03:20;;;;;;;;;;;;;;;11.31;74.75;102135.06;5053028;28;19925;-59
2021/12/18 01:05:47;;;;;;;;;;;;;;;11.28;74.57;102135.09;5052800;28;20027;-60
2021/12/18 01:08:14;;;;;;;;;;;;;;;11.26;74.72;102133.41;5052830;28;19924;-59
2021/12/18 01:13:21;;;;;;;;;;;;;;;11.25;74.76;102136.94;5052914;28;20262;-60
2021/12/18 01:15:52;;;;;;;;;;;;;;;11.23;74.91;102128.19;5052622;28;19921;-59
2021/12/18 01:23:49;;;;;;;;;;;;;;;11.21;75.12;102133.50;5052790;28;19966;-61
2021/12/18 01:26:16;;;;;;;;;;;;;;;11.20;74.78;102135.28;5052563;28;19924;-59
2021/12/18 01:28:43;;;;;;;;;;;;;;;11.20;74.93;102137.91;5051134;28;19924;-60
2021/12/18 01:31:09;;;;;;;;;;;;;;;11.19;74.89;102132.66;5052080;28;19933;-59
2021/12/18 01:33:36;;;;;;;;;;;;;;;11.19;74.93;102135.31;5052165;28;19924;-58
2021/12/18 01:36:03;;;;;;;;;;;;;;;11.20;74.82;102134.41;5052375;28;19920;-60
2021/12/18 01:38:31;;;;;;;;;;;;;;;11.19;74.84;102140.59;5052412;28;19928;-58
2021/12/18 01:40:58;;;;;;;;;;;;;;;11.18;74.71;102134.44;5050636;28;19986;-59
2021/12/18 01:51:33;;;;;;;;;;;;;;;11.14;74.98;102137.19;5051780;28;19924;-59
2021/12/18 01:54:00;;;;;;;;;;;;;;;11.10;74.84;102144.25;5051962;28;19925;-59
2021/12/18 01:56:27;;;;;;;;;;;;;;;11.09;74.72;102134.63;5051868;28;19940;-59
2021/12/18 01:58:54;;;;;;;;;;;;;;;11.08;74.62;102139.06;5051842;28;20300;-58
2021/12/18 02:01:21;;;;;;;;;;;;;;;11.08;74.67;102135.53;5051646;28;19944;-59
2021/12/18 02:03:48;;;;;;;;;;;;;;;11.07;74.77;102132.03;5050572;28;19928;-59
2021/12/18 02:06:15;;;;;;;;;;;;;;;11.07;74.65;102141.72;5051835;28;19927;-59
2021/12/18 02:08:43;;;;;;;;;;;;;;;11.04;74.65;102142.66;5051731;28;19925;-58
2021/12/18 02:11:26;;;;;;;;;;;;;;;11.03;74.75;102142.69;5050347;28;19970;-59
2021/12/18 02:19:48;;;;;;;;;;;;;;;10.95;74.56;102133.16;5051295;28;20089;-60
2021/12/18 02:22:16;;;;;;;;;;;;;;;10.94;74.68;102135.81;5051638;28;19939;-59
2021/12/18 02:24:42;;;;;;;;;;;;;;;10.91;74.45;102136.75;5051480;28;19927;-58
2021/12/18 02:27:09;;;;;;;;;;;;;;;10.87;74.39;102134.22;5050689;28;20360;-57
2021/12/18 02:29:38;;;;;;;;;;;;;;;10.84;74.64;102124.56;5051092;28;19921;-58
2021/12/18 02:32:05;;;;;;;;;;;;;;;10.81;74.60;102125.50;5051474;28;19928;-58
2021/12/18 02:34:33;;;;;;;;;;;;;;;10.79;74.48;102124.69;5049957;28;19920;-61
2021/12/18 02:37:05;;;;;;;;;;;;;;;10.77;74.37;102117.72;5050091;28;20376;-58
2021/12/18 02:39:54;;;;;;;;;;;;;;;10.72;74.25;102106.41;5050002;28;19925;-59
2021/12/18 02:42:22;;;;;;;;;;;;;;;10.69;74.51;102108.19;5050915;28;19924;-58
2021/12/18 02:44:49;;;;;;;;;;;;;;;10.68;74.42;102110.84;5051073;28;19921;-59
2021/12/18 02:47:17;;;;;;;;;;;;;;;10.65;74.51;102103.88;5049934;28;19928;-59
2021/12/18 02:49:44;;;;;;;;;;;;;;;10.63;74.63;102116.22;5049361;28;19975;-58
2021/12/18 02:52:11;;;;;;;;;;;;;;;10.60;74.65;102111.00;5049760;28;19928;-59
2021/12/18 02:54:39;;;;;;;;;;;;;;;10.60;74.69;102113.63;5050819;28;19920;-59
2021/12/18 02:57:05;;;;;;;;;;;;;;;10.58;74.64;102106.66;5051004;28;20332;-59
2021/12/18 02:59:42;;;;;;;;;;;;;;;10.57;74.61;102105.78;5050911;28;19978;-58
2021/12/18 03:02:08;;;;;;;;;;;;;;;10.54;74.58;102098.81;5051005;28;19920;-58
2021/12/18 03:04:37;;;;;;;;;;;;;;;10.53;74.56;102097.09;5050807;28;19920;-60
2021/12/18 03:07:06;;;;;;;;;;;;;;;10.52;74.63;102099.75;5050580;28;19925;-58
2021/12/18 03:18:58;;;;;;;;;;;;;;;10.49;74.60;102084.88;5050963;28;19925;-57
2021/12/18 03:23:48;;;;;;;;;;;;;;;10.33;74.22;102080.75;5048201;28;19920;-60
2021/12/18 03:26:14;;;;;;;;;;;;;;;10.27;74.27;102072.06;5048164;28;19943;-58
2021/12/18 03:28:41;;;;;;;;;;;;;;;10.23;74.18;102078.28;5049468;28;19931;-58
2021/12/18 03:31:08;;;;;;;;;;;;;;;10.20;74.06;102070.44;5049269;28;19924;-58
2021/12/18 03:33:35;;;;;;;;;;;;;;;10.17;74.14;102075.78;5049469;28;20008;-57
2021/12/18 03:36:02;;;;;;;;;;;;;;;10.12;74.06;102069.72;5050677;28;19991;-59
2021/12/18 03:38:29;;;;;;;;;;;;;;;10.10;74.20;102077.63;5052463;28;19924;-59
2021/12/18 03:40:55;;;;;;;;;;;;;;;10.07;74.32;102080.34;5054343;28;20020;-61
2021/12/18 03:43:22;;;;;;;;;;;;;;;10.06;74.31;102075.97;5054496;28;19920;-59
2021/12/18 03:45:48;;;;;;;;;;;;;;;10.04;74.37;102070.72;5054183;28;19921;-59
2021/12/18 03:48:15;;;;;;;;;;;;;;;10.02;74.40;102077.78;5054290;28;20365;-58
2021/12/18 03:50:43;;;;;;;;;;;;;;;10.01;74.60;102086.56;5052618;28;19928;-59
2021/12/18 03:53:09;;;;;;;;;;;;;;;9.99;74.42;102087.50;5054282;28;20473;-58
2021/12/18 03:55:36;;;;;;;;;;;;;;;9.98;74.36;102081.34;5054301;28;19924;-59
2021/12/18 03:58:02;;;;;;;;;;;;;;;9.97;74.44;102079.63;5054181;28;19967;-58
2021/12/18 04:00:29;;;;;;;;;;;;;;;9.97;74.63;102079.63;5053759;28;19925;-59
2021/12/18 04:02:55;;;;;;;;;;;;;;;9.99;74.69;102084.84;5054091;28;20019;-59
2021/12/18 04:05:22;;;;;;;;;;;;;;;9.99;74.66;102085.72;5053961;28;20368;-59
2021/12/18 04:07:50;;;;;;;;;;;;;;;10.01;74.78;102085.69;5054265;28;19925;-59
2021/12/18 04:10:17;;;;;;;;;;;;;;;10.03;74.67;102097.06;5054410;28;19921;-60
2021/12/18 04:12:44;;;;;;;;;;;;;;;10.02;74.69;102083.03;5054112;28;19921;-59
2021/12/18 04:15:10;;;;;;;;;;;;;;;10.02;74.61;102088.28;5053935;28;19923;-60
2021/12/18 04:17:37;;;;;;;;;;;;;;;10.01;74.61;102089.19;5053992;28;19927;-60
2021/12/18 04:20:04;;;;;;;;;;;;;;;10.00;74.51;102082.22;5053495;28;20521;-59
2021/12/18 04:22:30;;;;;;;;;;;;;;;10.02;74.74;102082.19;5053744;28;19956;-60
2021/12/18 04:24:57;;;;;;;;;;;;;;;10.00;74.77;102084.84;5053993;28;19921;-59
2021/12/18 04:27:23;;;;;;;;;;;;;;;10.02;74.62;102079.56;5053824;28;20411;-58
2021/12/18 04:29:50;;;;;;;;;;;;;;;10.02;74.67;102077.78;5052384;28;20338;-58
2021/12/18 04:32:16;;;;;;;;;;;;;;;10.04;74.87;102083.00;5053633;28;19999;-60
2021/12/18 04:34:43;;;;;;;;;;;;;;;10.06;74.91;102088.25;5053585;28;19948;-58
2021/12/18 04:37:09;;;;;;;;;;;;;;;10.07;74.88;102082.97;5053831;28;20050;-58
2021/12/18 04:39:36;;;;;;;;;;;;;;;10.08;74.78;102082.06;5053590;28;19924;-58
2021/12/18 04:42:02;;;;;;;;;;;;;;;10.11;74.81;102083.78;5053157;28;19943;-58
2021/12/18 04:44:29;;;;;;;;;;;;;;;10.11;74.68;102089.03;5053251;28;19924;-59
2021/12/18 04:46:55;;;;;;;;;;;;;;;10.12;74.90;102089.00;5053046;28;19947;-59
2021/12/18 04:49:22;;;;;;;;;;;;;;;10.14;74.85;102094.25;5051970;28;19967;-58
2021/12/18 04:51:48;;;;;;;;;;;;;;;10.13;74.74;102079.38;5053411;28;19924;-58
2021/12/18 04:54:15;;;;;;;;;;;;;;;10.13;74.66;102079.38;5053420;28;19925;-58
2021/12/18 04:56:41;;;;;;;;;;;;;;;10.12;74.51;102090.75;5053352;28;19928;-61
2021/12/18 04:59:08;;;;;;;;;;;;;;;10.09;74.53;102089.06;5053031;28;20479;-59
2021/12/18 05:01:37;;;;;;;;;;;;;;;10.11;74.55;102083.78;5053290;28;19924;-58
2021/12/18 05:04:05;;;;;;;;;;;;;;;10.10;74.70;102087.31;5051752;28;19932;-60
2021/12/18 05:06:35;;;;;;;;;;;;;;;10.09;74.78;102102.22;5053139;28;20394;-59
2021/12/18 05:09:02;;;;;;;;;;;;;;;10.10;74.91;102089.94;5052897;28;19932;-58
2021/12/18 05:11:28;;;;;;;;;;;;;;;10.11;74.82;102089.03;5052639;28;19921;-59
2021/12/18 05:13:55;;;;;;;;;;;;;;;10.12;75.03;102090.75;5051552;28;19947;-60
2021/12/18 05:16:22;;;;;;;;;;;;;;;10.12;74.82;102088.13;5052708;28;20300;-59
2021/12/18 05:18:49;;;;;;;;;;;;;;;10.14;74.82;102094.25;5052787;28;19921;-59
2021/12/18 05:21:15;;;;;;;;;;;;;;;10.14;74.79;102104.78;5052847;28;19925;-59
2021/12/18 05:23:41;;;;;;;;;;;;;;;10.14;74.71;102094.25;5052674;28;19978;-61
2021/12/18 05:26:08;;;;;;;;;;;;;;;10.14;74.91;102097.72;5052500;28;20365;-59
2021/12/18 05:28:34;;;;;;;;;;;;;;;10.15;74.83;102093.34;5052626;28;20446;-59
2021/12/18 05:31:01;;;;;;;;;;;;;;;10.15;74.94;102091.59;5052355;28;19924;-58
2021/12/18 05:33:27;;;;;;;;;;;;;;;10.16;74.74;102097.72;5052592;28;19924;-58
2021/12/18 05:35:54;;;;;;;;;;;;;;;10.16;74.81;102097.72;5052462;28;19925;-61
2021/12/18 05:38:20;;;;;;;;;;;;;;;10.14;74.70;102092.47;5051427;28;19924;-59
2021/12/18 05:40:47;;;;;;;;;;;;;;;10.14;74.74;102091.63;5052199;28;19928;-58
2021/12/18 05:43:13;;;;;;;;;;;;;;;10.13;74.77;102096.00;5051939;28;20373;-58
2021/12/18 05:45:40;;;;;;;;;;;;;;;10.13;74.54;102095.16;5052153;28;19925;-59
2021/12/18 05:48:06;;;;;;;;;;;;;;;10.11;74.55;102099.56;5052417;28;19924;-60
2021/12/18 05:50:33;;;;;;;;;;;;;;;10.11;74.58;102096.94;5051775;28;19921;-58
2021/12/18 05:53:00;;;;;;;;;;;;;;;10.08;74.69;102100.47;5052151;28;19924;-58
2021/12/18 05:55:28;;;;;;;;;;;;;;;10.08;74.45;102099.59;5051837;28;20377;-59
2021/12/18 05:57:54;;;;;;;;;;;;;;;10.06;74.61;102097.03;5051865;28;19920;-58
2021/12/18 06:00:21;;;;;;;;;;;;;;;10.05;74.46;102097.91;5052138;28;19921;-59
2021/12/18 06:02:48;;;;;;;;;;;;;;;10.04;74.54;102097.03;5051761;28;19924;-60
2021/12/18 06:05:14;;;;;;;;;;;;;;;10.03;74.51;102100.56;5051792;28;19920;-58
2021/12/18 06:10:10;;;;;;;;;;;;;;;10.01;74.53;102098.84;5051481;28;19925;-59
2021/12/18 06:12:37;;;;;;;;;;;;;;;9.98;74.55;102105.03;5051558;28;19943;-61
2021/12/18 06:15:03;;;;;;;;;;;;;;;9.96;74.43;102109.47;5051791;28;19928;-59
2021/12/18 06:17:30;;;;;;;;;;;;;;;9.95;74.48;102107.72;5051668;28;20361;-58
2021/12/18 06:19:56;;;;;;;;;;;;;;;9.94;74.42;102110.38;5051276;28;19925;-59
2021/12/18 06:22:23;;;;;;;;;;;;;;;9.93;74.50;102106.00;5051437;28;19929;-60
2021/12/18 06:24:49;;;;;;;;;;;;;;;9.93;74.52;102108.63;5051435;28;19920;-59
2021/12/18 06:27:16;;;;;;;;;;;;;;;9.92;74.62;102107.78;5051161;28;19921;-59
2021/12/18 06:29:43;;;;;;;;;;;;;;;9.90;74.68;102105.16;5050973;28;19929;-59
2021/12/18 06:32:10;;;;;;;;;;;;;;;9.90;74.75;102102.53;5051256;28;19920;-58
2021/12/18 06:34:36;;;;;;;;;;;;;;;9.89;74.70;102105.19;5051172;28;20360;-59
2021/12/18 06:37:02;;;;;;;;;;;;;;;9.89;74.70;102107.81;5051239;28;19928;-59
2021/12/18 06:39:29;;;;;;;;;;;;;;;9.89;74.67;102105.19;5050799;28;19978;-59
2021/12/18 06:41:56;;;;;;;;;;;;;;;9.90;74.87;102109.53;5051217;28;19921;-60
2021/12/18 06:44:22;;;;;;;;;;;;;;;9.90;74.75;102110.41;5050983;28;20369;-59
2021/12/18 06:46:49;;;;;;;;;;;;;;;9.91;74.78;102108.66;5051352;28;19921;-59
2021/12/18 06:49:15;;;;;;;;;;;;;;;9.91;74.71;102106.03;5050785;28;20364;-58
2021/12/18 06:51:42;;;;;;;;;;;;;;;9.91;74.69;102098.16;5051205;28;19929;-62
2021/12/18 06:54:08;;;;;;;;;;;;;;;9.89;74.71;102100.81;5051063;28;19925;-59
2021/12/18 06:56:35;;;;;;;;;;;;;;;9.89;74.66;102102.56;5050074;28;20335;-60
2021/12/18 06:59:01;;;;;;;;;;;;;;;9.88;74.71;102100.81;5051214;28;20316;-58
2021/12/18 07:01:28;;;;;;;;;;;;;;;9.86;74.55;102100.84;5051120;28;19929;-59
2021/12/18 07:03:54;;;;;;;;;;;;;;;9.85;74.56;102100.84;5050993;28;19924;-61
2021/12/18 07:06:21;;;;;;;;;;;;;;;9.83;74.74;102103.50;5050749;28;19986;-58
2021/12/18 07:08:48;;;;;;;;;;;;;;;9.84;74.61;102114.91;5050685;28;19921;-60
2021/12/18 07:11:14;;;;;;;;;;;;;;;9.84;74.66;102101.75;5050454;28;19928;-59
2021/12/18 07:13:41;;;;;;;;;;;;;;;9.83;74.48;102102.66;5055202;28;19932;-59
2021/12/18 07:16:07;;;;;;;;;;;;;;;9.82;74.51;102095.63;5057578;28;19974;-59
2021/12/18 07:18:34;;;;;;;;;;;;;;;9.81;74.51;102104.44;5057532;28;19932;-58
2021/12/18 07:21:00;;;;;;;;;;;;;;;9.80;74.57;102097.44;5057120;28;19974;-59
2021/12/18 07:23:27;;;;;;;;;;;;;;;9.79;74.46;102099.19;5057330;28;19921;-60
2021/12/18 07:25:54;;;;;;;;;;;;;;;9.77;74.25;102104.47;5057742;28;19966;-59
2021/12/18 07:28:20;;;;;;;;;;;;;;;9.74;74.19;102099.28;5057531;28;19925;-58
2021/12/18 07:30:47;;;;;;;;;;;;;;;9.69;74.03;102093.22;5056999;28;20494;-60
2021/12/18 07:33:13;;;;;;;;;;;;;;;9.68;74.20;102093.25;5057546;28;19921;-59
2021/12/18 07:35:41;;;;;;;;;;;;;;;9.65;73.88;102092.38;5056019;28;19964;-60
2021/12/18 07:38:08;;;;;;;;;;;;;;;9.64;74.29;102092.41;5056944;28;19925;-59
2021/12/18 07:40:34;;;;;;;;;;;;;;;9.63;74.33;102099.44;5057031;28;19921;-59
2021/12/18 07:43:01;;;;;;;;;;;;;;;9.63;74.35;102095.94;5057386;28;20427;-61
2021/12/18 07:45:27;;;;;;;;;;;;;;;9.63;74.48;102101.19;5056058;28;19928;-60
2021/12/18 07:47:54;;;;;;;;;;;;;;;9.62;74.46;102095.09;5057281;28;19921;-58
2021/12/18 07:50:20;;;;;;;;;;;;;;;9.63;74.52;102095.94;5056810;28;20347;-60
2021/12/18 07:52:48;;;;;;;;;;;;;;;9.62;74.54;102094.22;5056382;28;19986;-62
2021/12/18 07:55:15;;;;;;;;;;;;;;;9.62;74.41;102091.56;5056962;28;19928;-59
2021/12/18 07:57:41;;;;;;;;;;;;;;;9.62;74.41;102096.84;5057330;28;19925;-60
2021/12/18 08:00:10;;;;;;;;;;;;;;;9.59;74.41;102095.13;5057008;28;20655;-58
2021/12/18 08:02:38;;;;;;;;;;;;;;;9.58;74.29;102092.50;5055837;28;19921;-60
2021/12/18 08:05:05;;;;;;;;;;;;;;;9.58;74.28;102098.66;5055145;28;19921;-58
2021/12/18 08:07:32;;;;;;;;;;;;;;;9.59;74.44;102096.88;5057134;28;19924;-59
2021/12/18 08:09:58;;;;;;;;;;;;;;;9.57;74.26;102099.53;5056869;28;20269;-59
2021/12/18 08:12:25;;;;;;;;;;;;;;;9.58;74.39;102096.03;5057073;28;19921;-60
2021/12/18 08:14:51;;;;;;;;;;;;;;;9.58;74.53;102089.88;5056880;28;19929;-62
2021/12/18 08:17:18;;;;;;;;;;;;;;;9.57;74.27;102086.38;5057012;28;20385;-60
2021/12/18 08:19:45;;;;;;;;;;;;;;;9.57;74.47;102085.53;5055798;28;19931;-59
2021/12/18 08:22:11;;;;;;;;;;;;;;;9.57;74.58;102088.16;5057016;28;20400;-58
2021/12/18 08:24:38;;;;;;;;;;;;;;;9.58;74.46;102087.25;5052929;28;19925;-59
2021/12/18 08:27:04;;;;;;;;;;;;;;;9.58;74.64;102084.63;5053883;28;19921;-59
2021/12/18 08:29:31;;;;;;;;;;;;;;;9.58;74.49;102088.13;5053397;28;19928;-59
2021/12/18 08:31:57;;;;;;;;;;;;;;;9.59;74.63;102086.34;5053644;28;19921;-59
2021/12/18 08:34:25;;;;;;;;;;;;;;;9.59;74.57;102083.72;5053094;28;19924;-64
2021/12/18 08:36:51;;;;;;;;;;;;;;;9.59;74.69;102095.13;5052181;28;19935;-59
2021/12/18 08:39:18;;;;;;;;;;;;;;;9.60;74.65;102090.72;5053484;28;20292;-60
2021/12/18 08:41:45;;;;;;;;;;;;;;;9.62;74.59;102092.47;5053457;28;19925;-62
2021/12/18 08:44:13;;;;;;;;;;;;;;;9.64;74.59;102092.41;5052217;28;19920;-59
2021/12/18 08:46:39;;;;;;;;;;;;;;;9.65;74.66;102083.66;5053385;28;19939;-59
2021/12/18 08:49:06;;;;;;;;;;;;;;;9.66;74.64;102090.63;5052178;28;20372;-61
2021/12/18 08:51:35;;;;;;;;;;;;;;;9.69;74.60;102089.72;5053219;28;19925;-62
2021/12/18 08:54:02;;;;;;;;;;;;;;;9.69;74.67;102093.22;5053344;28;19928;-59
2021/12/18 08:56:29;;;;;;;;;;;;;;;9.72;74.65;102098.41;5053005;28;19966;-60
2021/12/18 08:58:55;;;;;;;;;;;;;;;9.73;74.56;102097.56;5053163;28;19924;-61
2021/12/18 09:01:23;;;;;;;;;;;;;;;9.74;74.77;102099.28;5052843;28;19924;-60
2021/12/18 09:03:49;;;;;;;;;;;;;;;9.75;74.59;102093.13;5051974;28;20388;-59
2021/12/18 09:06:16;;;;;;;;;;;;;;;9.76;74.46;102091.38;5053155;28;19947;-60
2021/12/18 09:08:42;;;;;;;;;;;;;;;9.76;74.68;102091.38;5053045;28;19940;-59
2021/12/18 09:11:09;;;;;;;;;;;;;;;9.76;74.61;102089.59;5052574;28;19924;-60
2021/12/18 09:13:36;;;;;;;;;;;;;;;9.76;74.57;102096.63;5052965;28;19944;-59
2021/12/18 09:16:02;;;;;;;;;;;;;;;9.77;74.64;102093.09;5052796;28;19925;-60
2021/12/18 09:18:29;;;;;;;;;;;;;;;9.76;74.55;102091.38;5052795;28;19921;-61
2021/12/18 09:20:55;;;;;;;;;;;;;;;9.76;74.39;102092.22;5052404;28;19928;-61
2021/12/18 09:23:22;;;;;;;;;;;;;;;9.77;74.68;102099.22;5052793;28;19971;-60
2021/12/18 09:25:49;;;;;;;;;;;;;;;9.77;74.75;102093.09;5052171;28;19968;-60
2021/12/18 09:28:15;;;;;;;;;;;;;;;9.78;74.69;102097.47;5052372;28;19924;-61
2021/12/18 09:30:42;;;;;;;;;;;;;;;9.79;74.62;102099.19;5052381;28;19929;-61
2021/12/18 09:33:11;;;;;;;;;;;;;;;9.81;74.70;102101.81;5052836;28;19993;-63
2021/12/18 09:35:38;;;;;;;;;;;;;;;9.81;74.88;102101.81;5050975;28;19921;-60
2021/12/18 09:38:05;;;;;;;;;;;;;;;9.84;74.70;102099.13;5052358;28;19920;-58
2021/12/18 09:40:31;;;;;;;;;;;;;;;9.86;74.81;102105.22;5051923;28;19921;-59
2021/12/18 09:42:58;;;;;;;;;;;;;;;9.88;74.69;102106.09;5051980;28;19978;-60
2021/12/18 09:45:25;;;;;;;;;;;;;;;9.89;74.64;102102.56;5052345;28;19928;-61
2021/12/18 09:47:52;;;;;;;;;;;;;;;9.89;74.75;102100.81;5052364;28;19921;-61
2021/12/18 09:50:21;;;;;;;;;;;;;;;9.89;74.71;102095.53;5051649;28;19929;-60
2021/12/18 09:52:47;;;;;;;;;;;;;;;9.90;74.77;102093.75;5051987;28;19925;-59
2021/12/18 09:55:15;;;;;;;;;;;;;;;9.91;74.79;102085.00;5051864;28;19920;-60
2021/12/18 09:57:41;;;;;;;;;;;;;;;9.93;74.83;102083.19;5050575;28;19943;-59
2021/12/18 10:00:10;;;;;;;;;;;;;;;9.96;74.82;102088.41;5051849;28;19925;-59
2021/12/18 10:02:36;;;;;;;;;;;;;;;9.98;74.81;102086.59;5050668;28;19966;-59
2021/12/18 10:05:03;;;;;;;;;;;;;;;10.01;74.82;102083.94;5050603;28;19929;-59
2021/12/18 10:07:30;;;;;;;;;;;;;;;10.04;74.86;102083.00;5051631;28;19928;-63
2021/12/18 10:09:58;;;;;;;;;;;;;;;10.07;74.83;102076.81;5051587;28;20392;-59
2021/12/18 10:12:26;;;;;;;;;;;;;;;10.10;74.85;102074.16;5051851;28;19939;-63
2021/12/18 10:14:53;;;;;;;;;;;;;;;10.13;75.04;102074.09;5051730;28;19921;-61
2021/12/18 10:17:34;;;;;;;;;;;;;;;10.16;75.10;102074.91;5050365;28;19929;-59
2021/12/18 10:20:10;;;;;;;;;;;;;;;10.20;75.19;102067.81;5051168;28;19932;-61
2021/12/18 10:22:42;;;;;;;;;;;;;;;10.24;75.15;102064.22;5051344;28;19928;-62
2021/12/18 10:25:09;;;;;;;;;;;;;;;10.27;75.09;102065.94;5051673;28;19927;-62
2021/12/18 10:27:37;;;;;;;;;;;;;;;10.29;75.00;102057.09;5051394;28;19925;-60
2021/12/18 10:30:11;;;;;;;;;;;;;;;10.33;74.93;102057.94;5051152;28;19925;-59
2021/12/18 10:32:38;;;;;;;;;;;;;;;10.36;74.96;102059.66;5051320;28;19920;-59
2021/12/18 10:35:05;;;;;;;;;;;;;;;10.39;75.09;102059.59;5051111;28;19924;-61
2021/12/18 10:37:33;;;;;;;;;;;;;;;10.41;75.04;102057.78;5051441;28;19928;-61
2021/12/18 10:40:04;;;;;;;;;;;;;;;10.43;75.00;102058.59;5051118;28;20376;-59
2021/12/18 10:42:39;;;;;;;;;;;;;;;10.47;74.89;102054.19;5051263;28;19979;-60
2021/12/18 10:45:19;;;;;;;;;;;;;;;10.49;75.07;102052.41;5033822;28;20384;-59
2021/12/18 10:47:55;;;;;;;;;;;;;;;10.52;75.11;102045.31;5050243;28;19929;-59
2021/12/18 10:50:24;;;;;;;;;;;;;;;10.55;75.06;102039.13;5050796;28;20019;-60
2021/12/18 10:52:53;;;;;;;;;;;;;;;10.56;74.94;102040.84;5050867;28;19928;-59
2021/12/18 10:55:26;;;;;;;;;;;;;;;10.58;74.91;102038.19;5050950;28;19920;-60
2021/12/18 10:57:53;;;;;;;;;;;;;;;10.59;74.94;102034.66;5050967;28;20366;-59
2021/12/18 11:00:30;;;;;;;;;;;;;;;10.60;74.85;102033.75;5049467;28;19928;-60
2021/12/18 11:02:57;;;;;;;;;;;;;;;10.61;74.77;102038.13;5050963;28;19970;-61
2021/12/18 11:05:24;;;;;;;;;;;;;;;10.62;74.85;102038.06;5050897;28;19982;-61
2021/12/18 11:08:06;;;;;;;;;;;;;;;10.64;74.91;102030.16;5050843;28;19920;-60
2021/12/18 11:10:43;;;;;;;;;;;;;;;10.66;74.94;102028.38;5050536;28;20155;-60
2021/12/18 11:15:55;;;;;;;;;;;;;;;10.70;74.90;102024.78;5050777;28;20538;-59
2021/12/18 11:18:21;;;;;;;;;;;;;;;10.71;75.12;102023.88;5050659;28;19920;-59
2021/12/18 11:20:50;;;;;;;;;;;;;;;10.73;75.03;102029.94;5050382;28;20019;-60
2021/12/18 11:23:33;;;;;;;;;;;;;;;10.74;74.82;102026.44;5049604;28;19928;-60
2021/12/18 11:26:00;;;;;;;;;;;;;;;10.75;74.83;102014.13;5049435;28;19978;-60
2021/12/18 11:28:27;;;;;;;;;;;;;;;10.74;74.75;102017.66;5050673;28;19921;-60
2021/12/18 11:30:57;;;;;;;;;;;;;;;10.76;74.82;102016.72;5050461;28;19971;-59
2021/12/18 11:33:24;;;;;;;;;;;;;;;10.76;74.77;102015.88;5050468;28;20468;-60
2021/12/18 11:35:50;;;;;;;;;;;;;;;10.76;74.78;102014.09;5049568;28;19978;-61
2021/12/18 11:38:18;;;;;;;;;;;;;;;10.76;74.72;102022.00;5050812;28;20262;-60
2021/12/18 11:40:45;;;;;;;;;;;;;;;10.77;74.76;102018.44;5049151;28;19924;-61
2021/12/18 11:43:29;;;;;;;;;;;;;;;10.78;74.77;102014.06;5050616;28;19924;-58
2021/12/18 11:45:57;;;;;;;;;;;;;;;10.78;74.87;102007.03;5050280;28;19928;-60
2021/12/18 11:48:23;;;;;;;;;;;;;;;10.80;74.88;102006.97;5049012;28;19944;-58
2021/12/18 11:50:50;;;;;;;;;;;;;;;10.81;74.83;102008.75;5050316;28;20533;-60
2021/12/18 11:53:18;;;;;;;;;;;;;;;10.81;74.68;101998.19;5050568;28;19924;-60
2021/12/18 11:55:51;;;;;;;;;;;;;;;10.83;74.42;102004.28;5050353;28;19932;-61
2021/12/18 11:58:22;;;;;;;;;;;;;;;10.82;74.59;101998.16;5050211;28;19975;-59
2021/12/18 12:00:52;;;;;;;;;;;;;;;10.81;74.58;101988.50;5053993;28;19920;-62
2021/12/18 12:03:38;;;;;;;;;;;;;;;10.80;74.39;101981.50;5054274;28;19921;-58
2021/12/18 12:06:27;;;;;;;;;;;;;;;10.79;74.45;101982.41;5054191;28;19920;-59
2021/12/18 12:09:23;;;;;;;;;;;;;;;10.78;74.41;101980.69;5052827;28;19928;-60
2021/12/18 12:11:52;;;;;;;;;;;;;;;10.78;74.55;101977.19;5052557;28;20323;-59
2021/12/18 12:14:20;;;;;;;;;;;;;;;10.79;74.53;101978.91;5052826;28;19921;-59
2021/12/18 12:16:47;;;;;;;;;;;;;;;10.78;74.61;101972.78;5052695;28;19924;-60
2021/12/18 12:19:18;;;;;;;;;;;;;;;10.79;74.63;101974.53;5053546;28;19931;-60
2021/12/18 12:21:49;;;;;;;;;;;;;;;10.79;74.55;101973.63;5053612;28;19921;-59
2021/12/18 12:24:16;;;;;;;;;;;;;;;10.79;74.64;101963.97;5053737;28;19975;-60
2021/12/18 12:26:43;;;;;;;;;;;;;;;10.79;74.63;101971.88;5053711;28;19930;-62
2021/12/18 12:29:11;;;;;;;;;;;;;;;10.80;74.63;101973.59;5053393;28;19920;-60
2021/12/18 12:31:51;;;;;;;;;;;;;;;10.80;74.64;101965.72;5053368;28;19928;-61
2021/12/18 12:34:18;;;;;;;;;;;;;;;10.81;74.79;101962.16;5053613;28;20448;-60
2021/12/18 12:36:45;;;;;;;;;;;;;;;10.84;74.72;101965.66;5053462;28;19920;-61
2021/12/18 12:39:14;;;;;;;;;;;;;;;10.86;74.87;101964.72;5052116;28;19921;-62
2021/12/18 12:41:52;;;;;;;;;;;;;;;10.86;74.74;101955.94;5050879;28;19921;-60
2021/12/18 12:44:22;;;;;;;;;;;;;;;10.86;74.76;101953.28;5052039;28;20589;-60
2021/12/18 12:47:08;;;;;;;;;;;;;;;10.86;74.50;101951.53;5053313;28;20335;-58
2021/12/18 12:49:35;;;;;;;;;;;;;;;10.86;74.65;101937.47;5052798;28;19971;-59
2021/12/18 12:52:03;;;;;;;;;;;;;;;10.88;74.56;101948.88;5053165;28;19920;-60
2021/12/18 12:54:49;;;;;;;;;;;;;;;10.88;74.72;101949.72;5053058;28;19924;-61
2021/12/18 12:57:21;;;;;;;;;;;;;;;10.88;74.64;101935.69;5053316;28;20361;-59
2021/12/18 12:59:52;;;;;;;;;;;;;;;10.87;74.79;101941.88;5053002;28;19920;-58
2021/12/18 13:02:18;;;;;;;;;;;;;;;10.87;74.55;101934.81;5051847;28;20265;-60
2021/12/18 13:04:45;;;;;;;;;;;;;;;10.87;74.50;101933.97;5053131;28;19924;-59
2021/12/18 13:07:12;;;;;;;;;;;;;;;10.88;74.64;101933.06;5052928;28;19928;-59
2021/12/18 13:09:45;;;;;;;;;;;;;;;10.86;74.65;101933.09;5053011;28;19921;-59
2021/12/18 13:12:12;;;;;;;;;;;;;;;10.86;74.30;101933.09;5052269;28;19921;-62
2021/12/18 13:14:40;;;;;;;;;;;;;;;10.86;74.70;101932.22;5052620;28;19947;-59
2021/12/18 13:17:17;;;;;;;;;;;;;;;10.84;74.68;101926.97;5052965;28;20356;-59
2021/12/18 13:19:52;;;;;;;;;;;;;;;10.85;74.66;101925.22;5052351;28;19930;-59
2021/12/18 13:22:22;;;;;;;;;;;;;;;10.82;74.71;101921.78;5052809;28;19920;-59
2021/12/18 13:25:01;;;;;;;;;;;;;;;10.82;74.48;101927.03;5051275;28;19936;-61